Terminal Aerodrome Forecast
Issued by NWS Bismarck, ND

Home | Current Version | Previous Version | Graphics & Text | Print | Product List | Glossary On
Versions: 1 2 3 4 5 6 7 8 9 10 11 12 13 14 15 16 17 18 19 20 21
086
FTUS43 KBIS 292333
TAFISN
TAF
KISN 292333Z 3000/3024 25010KT P6SM SKC
     FM301200 VRB03KT P6SM -SHRA BKN090
     FM301700 35007KT 5SM SHRA VCTS BKN060CB
     FM302000 33010KT P6SM -SHRA VCTS BKN060CB=

USA.gov is the U.S. government's official web portal to all federal, state and local government web resources and services.